createdAt,value
2018-06-12T00:01:16.081Z,15.16
2018-06-12T00:03:43.224Z,15.15
2018-06-12T00:06:10.391Z,15.11
2018-06-12T00:08:37.575Z,15.11
2018-06-12T00:11:04.793Z,15.12
2018-06-12T00:13:32.080Z,15.00
2018-06-12T00:15:59.418Z,14.95
2018-06-12T00:18:26.534Z,14.95
2018-06-12T00:20:53.741Z,14.97
2018-06-12T00:23:20.874Z,14.98
2018-06-12T00:25:47.979Z,15.05
2018-06-12T00:28:15.241Z,15.06
2018-06-12T00:30:42.361Z,15.03
2018-06-12T00:33:09.472Z,15.06
2018-06-12T00:35:36.737Z,15.03
2018-06-12T00:38:03.952Z,15.01
2018-06-12T00:40:31.210Z,14.94
2018-06-12T00:42:58.392Z,14.93
2018-06-12T00:45:25.511Z,14.90
2018-06-12T00:47:52.628Z,14.89
2018-06-12T00:50:20.155Z,14.89
2018-06-12T00:52:47.251Z,14.91
2018-06-12T00:55:14.352Z,14.83
2018-06-12T00:57:41.476Z,14.87
2018-06-12T01:00:08.663Z,14.86
2018-06-12T01:02:35.880Z,14.83
2018-06-12T01:05:03.185Z,14.79
2018-06-12T01:07:30.442Z,14.78
2018-06-12T01:09:57.549Z,14.76
2018-06-12T01:12:28.502Z,14.75
2018-06-12T01:14:55.729Z,14.70
2018-06-12T01:17:22.868Z,14.68
2018-06-12T01:19:50.139Z,14.64
2018-06-12T01:22:17.232Z,14.69
2018-06-12T01:24:44.353Z,14.73
2018-06-12T01:27:11.560Z,14.81
2018-06-12T01:29:38.681Z,14.85
2018-06-12T01:32:05.832Z,14.94
2018-06-12T01:34:33.084Z,14.96
2018-06-12T01:37:00.292Z,15.02
2018-06-12T01:39:27.400Z,15.03
2018-06-12T01:41:54.585Z,15.08
2018-06-12T01:44:21.711Z,15.10
2018-06-12T01:46:48.807Z,15.08
2018-06-12T01:49:15.971Z,15.03
2018-06-12T01:51:43.147Z,14.92
2018-06-12T01:54:10.274Z,14.82
2018-06-12T01:56:37.470Z,14.83
2018-06-12T01:59:04.675Z,14.82
2018-06-12T02:01:31.905Z,14.86
2018-06-12T02:03:59.095Z,14.89
2018-06-12T02:06:26.196Z,14.81
2018-06-12T02:08:53.302Z,14.72
2018-06-12T02:11:20.580Z,14.71
2018-06-12T02:13:47.721Z,14.67
2018-06-12T02:16:14.807Z,14.65
2018-06-12T02:18:41.977Z,14.70
2018-06-12T02:21:09.084Z,14.69
2018-06-12T02:23:36.265Z,14.74
2018-06-12T02:26:03.495Z,14.74
2018-06-12T02:28:30.725Z,14.74
2018-06-12T02:30:57.864Z,14.74
2018-06-12T02:33:25.204Z,14.87
2018-06-12T02:35:52.402Z,14.93
2018-06-12T02:38:19.488Z,14.97
2018-06-12T02:40:46.650Z,15.06
2018-06-12T02:43:13.767Z,15.12
2018-06-12T02:45:40.907Z,15.15
2018-06-12T02:48:08.204Z,15.16
2018-06-12T02:50:35.436Z,15.30
2018-06-12T02:53:02.688Z,15.26
2018-06-12T02:55:29.981Z,15.22
2018-06-12T02:57:57.099Z,15.19
2018-06-12T03:00:24.211Z,15.25
2018-06-12T03:02:51.359Z,15.24
2018-06-12T03:05:18.700Z,15.20
2018-06-12T03:07:45.818Z,15.31
2018-06-12T03:10:13.520Z,15.21
2018-06-12T03:12:40.624Z,15.24
2018-06-12T03:15:08.364Z,15.18
2018-06-12T03:17:35.627Z,15.21
2018-06-12T03:20:02.836Z,15.15
2018-06-12T03:22:30.078Z,15.07
2018-06-12T03:24:57.242Z,15.06
2018-06-12T03:27:24.373Z,15.02
2018-06-12T03:29:51.498Z,15.18
2018-06-12T03:32:18.689Z,15.12
2018-06-12T03:34:45.819Z,15.08
2018-06-12T03:37:12.943Z,14.96
2018-06-12T03:39:40.084Z,15.00
2018-06-12T03:42:08.269Z,15.04
2018-06-12T03:44:35.446Z,15.00
2018-06-12T03:47:02.706Z,14.97
2018-06-12T03:49:29.994Z,14.95
2018-06-12T03:51:57.349Z,14.89
2018-06-12T03:54:24.568Z,14.90
2018-06-12T03:56:51.682Z,14.90
2018-06-12T03:59:18.825Z,14.98
2018-06-12T04:01:57.894Z,14.98
2018-06-12T04:04:25.115Z,14.97
2018-06-12T04:06:52.225Z,15.11
2018-06-12T04:09:19.445Z,15.11
2018-06-12T04:11:46.614Z,15.14
2018-06-12T04:14:13.791Z,15.32
2018-06-12T04:16:41.200Z,15.23
2018-06-12T04:19:08.344Z,15.24
2018-06-12T04:21:35.649Z,15.31
2018-06-12T04:24:02.898Z,15.36
2018-06-12T04:26:30.166Z,15.36
2018-06-12T04:28:58.087Z,15.41
2018-06-12T04:31:25.282Z,15.45
2018-06-12T04:33:52.413Z,15.45
2018-06-12T04:36:19.521Z,15.43
2018-06-12T04:38:46.744Z,15.58
2018-06-12T04:41:13.869Z,15.52
2018-06-12T04:43:41.572Z,15.72
2018-06-12T04:46:08.816Z,15.55
2018-06-12T04:48:35.939Z,15.60
2018-06-12T04:51:03.639Z,15.64
2018-06-12T04:53:30.897Z,15.60
2018-06-12T04:55:58.037Z,15.57
2018-06-12T04:58:25.181Z,15.69
2018-06-12T05:00:52.345Z,15.72
2018-06-12T05:03:22.568Z,15.72
2018-06-12T05:05:49.808Z,15.66
2018-06-12T05:08:16.956Z,15.80
2018-06-12T05:10:44.060Z,15.87
2018-06-12T05:13:11.544Z,16.08
2018-06-12T05:15:38.757Z,15.92
2018-06-12T05:18:05.974Z,16.16
2018-06-12T05:20:33.501Z,16.22
2018-06-12T05:23:00.970Z,16.18
2018-06-12T05:25:28.156Z,16.21
2018-06-12T05:27:55.247Z,16.32
2018-06-12T05:30:23.252Z,16.33
2018-06-12T05:32:50.378Z,16.27
2018-06-12T05:35:17.464Z,16.32
2018-06-12T05:37:44.608Z,16.19
2018-06-12T05:40:11.839Z,16.31
2018-06-12T05:42:40.992Z,16.34
2018-06-12T05:45:08.404Z,16.10
2018-06-12T05:47:35.711Z,16.17
2018-06-12T05:50:03.243Z,16.31
2018-06-12T05:52:31.341Z,16.44
2018-06-12T05:54:58.596Z,16.55
2018-06-12T05:57:25.695Z,16.57
2018-06-12T05:59:52.864Z,16.74
2018-06-12T06:02:20.020Z,16.71
2018-06-12T06:04:47.158Z,16.52
2018-06-12T06:07:14.310Z,16.49
2018-06-12T06:09:41.438Z,16.26
2018-06-12T06:12:08.827Z,16.44
2018-06-12T06:14:36.265Z,16.29
2018-06-12T06:17:03.762Z,16.16
2018-06-12T06:19:31.778Z,16.13
2018-06-12T06:21:59.331Z,16.09
2018-06-12T06:24:26.562Z,16.04
2018-06-12T06:26:53.796Z,16.17
2018-06-12T06:29:21.099Z,16.18
2018-06-12T06:31:49.141Z,16.05
2018-06-12T06:34:16.401Z,16.29
2018-06-12T06:36:43.596Z,16.40
2018-06-12T06:39:10.830Z,16.56
2018-06-12T06:41:38.267Z,16.70
2018-06-12T06:44:06.015Z,16.80
2018-06-12T06:46:33.649Z,17.09
2018-06-12T06:49:02.063Z,17.17
2018-06-12T06:51:29.587Z,17.18
2018-06-12T06:53:56.786Z,17.41
2018-06-12T06:56:23.913Z,17.31
2018-06-12T06:58:51.132Z,17.02
2018-06-12T07:01:18.345Z,17.16
2018-06-12T07:03:45.479Z,17.23
2018-06-12T07:06:12.653Z,17.29
2018-06-12T07:08:39.880Z,17.27
2018-06-12T07:11:07.281Z,17.40
2018-06-12T07:13:34.786Z,17.61
2018-06-12T07:16:02.318Z,17.64
2018-06-12T07:18:30.054Z,17.63
2018-06-12T07:21:04.245Z,17.52
2018-06-12T07:23:32.008Z,17.57
2018-06-12T07:25:59.649Z,17.92
2018-06-12T07:28:26.859Z,18.53
2018-06-12T07:30:57.792Z,18.33
2018-06-12T07:33:25.975Z,18.38
2018-06-12T07:35:53.176Z,18.17
2018-06-12T07:38:20.427Z,18.05
2018-06-12T07:40:47.599Z,18.14
2018-06-12T07:43:14.771Z,17.98
2018-06-12T07:45:42.046Z,18.45
2018-06-12T07:48:09.462Z,18.64
2018-06-12T07:50:36.819Z,18.31
2018-06-12T07:53:04.282Z,18.40
2018-06-12T07:55:32.389Z,18.21
2018-06-12T07:57:59.913Z,17.95
2018-06-12T08:00:27.101Z,17.79
2018-06-12T08:02:54.253Z,17.90
2018-06-12T08:05:21.410Z,18.05
2018-06-12T08:07:48.504Z,18.09
2018-06-12T08:10:15.794Z,18.01
2018-06-12T08:12:42.978Z,17.63
2018-06-12T08:15:10.316Z,17.59
2018-06-12T08:17:37.618Z,17.63
2018-06-12T08:20:05.062Z,17.69
2018-06-12T08:22:32.810Z,17.43
2018-06-12T08:25:01.107Z,17.73
2018-06-12T08:27:28.334Z,18.18
2018-06-12T08:29:55.697Z,18.92
2018-06-12T08:32:22.847Z,19.36
2018-06-12T08:34:50.122Z,19.16
2018-06-12T08:37:17.312Z,19.34
2018-06-12T08:39:44.497Z,19.52
2018-06-12T08:42:11.716Z,19.87
2018-06-12T08:44:39.043Z,19.78
2018-06-12T08:47:06.730Z,20.20
2018-06-12T08:49:34.527Z,20.70
2018-06-12T08:52:02.313Z,20.77
2018-06-12T08:54:30.172Z,20.67
2018-06-12T08:56:57.400Z,20.65
2018-06-12T08:59:24.560Z,20.69
2018-06-12T09:01:51.791Z,20.13
2018-06-12T09:04:19.006Z,20.29
2018-06-12T09:06:46.247Z,20.62
2018-06-12T09:09:13.429Z,20.65
2018-06-12T09:11:40.585Z,20.74
2018-06-12T09:14:08.000Z,20.25
2018-06-12T09:16:35.363Z,20.00
2018-06-12T09:19:03.608Z,19.89
2018-06-12T09:21:31.342Z,19.80
2018-06-12T09:23:58.812Z,20.11
2018-06-12T09:26:26.026Z,21.04
2018-06-12T09:28:53.241Z,21.29
2018-06-12T09:31:20.444Z,21.02
2018-06-12T09:33:47.571Z,20.85
2018-06-12T09:36:20.522Z,21.32
2018-06-12T09:38:47.649Z,20.99
2018-06-12T09:41:14.894Z,21.06
2018-06-12T09:43:42.112Z,21.01
2018-06-12T09:46:09.612Z,20.92
2018-06-12T09:48:37.246Z,21.13
2018-06-12T09:51:04.759Z,21.02
2018-06-12T09:53:32.659Z,20.49
2018-06-12T09:56:00.755Z,20.63
2018-06-12T09:58:28.660Z,21.02
2018-06-12T10:01:01.552Z,20.80
2018-06-12T10:03:29.204Z,20.34
2018-06-12T10:05:56.459Z,20.33
2018-06-12T10:08:23.569Z,20.40
2018-06-12T10:10:50.886Z,20.72
2018-06-12T10:13:18.010Z,20.90
2018-06-12T10:15:45.204Z,20.94
2018-06-12T10:18:12.416Z,21.06
2018-06-12T10:20:39.812Z,21.67
2018-06-12T10:23:07.453Z,21.77
2018-06-12T10:25:34.987Z,21.99
2018-06-12T10:28:02.818Z,21.53
2018-06-12T10:30:31.903Z,21.52
2018-06-12T10:32:59.718Z,21.44
2018-06-12T10:35:27.140Z,21.31
2018-06-12T10:37:54.269Z,21.65
2018-06-12T10:40:21.515Z,22.33
2018-06-12T10:42:48.637Z,22.32
2018-06-12T10:45:16.107Z,22.07
2018-06-12T10:47:43.349Z,22.29
2018-06-12T10:50:10.600Z,22.91
2018-06-12T10:52:38.161Z,24.04
2018-06-12T10:55:06.481Z,24.43
2018-06-12T10:57:34.566Z,25.04
2018-06-12T11:00:02.418Z,25.72
2018-06-12T11:02:32.075Z,26.62
2018-06-12T11:04:59.595Z,26.46
2018-06-12T11:07:26.850Z,24.93
2018-06-12T11:09:54.116Z,24.91
2018-06-12T11:12:21.283Z,25.92
2018-06-12T11:14:48.502Z,25.85
2018-06-12T11:17:15.765Z,25.78
2018-06-12T11:19:42.961Z,26.42
2018-06-12T11:22:16.468Z,25.67
2018-06-12T11:24:43.607Z,26.60
2018-06-12T11:27:10.793Z,26.80
2018-06-12T11:29:38.371Z,25.17
2018-06-12T11:32:06.047Z,25.40
2018-06-12T11:34:34.143Z,26.87
2018-06-12T11:37:01.997Z,26.96
2018-06-12T11:39:29.744Z,28.10
2018-06-12T11:41:57.136Z,28.73
2018-06-12T11:44:25.301Z,28.29
2018-06-12T11:46:52.499Z,27.80
2018-06-12T11:49:19.720Z,26.84
2018-06-12T11:51:46.904Z,27.90
2018-06-12T11:54:14.068Z,28.53
2018-06-12T11:56:41.284Z,29.56
2018-06-12T11:59:08.847Z,29.39
2018-06-12T12:01:36.272Z,28.18
2018-06-12T12:04:03.951Z,29.22
2018-06-12T12:06:33.071Z,28.66
2018-06-12T12:09:01.062Z,28.25
2018-06-12T12:11:28.246Z,28.43
2018-06-12T12:13:55.494Z,27.75
2018-06-12T12:16:22.632Z,26.83
2018-06-12T12:18:49.929Z,25.93
2018-06-12T12:21:17.122Z,25.45
2018-06-12T12:23:44.330Z,25.14
2018-06-12T12:26:11.472Z,24.92
2018-06-12T12:28:39.051Z,24.23
2018-06-12T12:31:06.483Z,23.90
2018-06-12T12:33:34.305Z,23.69
2018-06-12T12:36:02.410Z,23.63
2018-06-12T12:38:30.328Z,23.26
2018-06-12T12:40:57.479Z,23.05
2018-06-12T12:43:24.653Z,23.00
2018-06-12T12:45:51.765Z,23.40
2018-06-12T12:48:19.051Z,23.15
2018-06-12T12:50:46.199Z,23.53
2018-06-12T12:53:13.332Z,23.10
2018-06-12T12:55:40.495Z,23.27
2018-06-12T12:58:08.193Z,23.08
2018-06-12T13:00:36.085Z,23.18
2018-06-12T13:03:03.680Z,22.94
2018-06-12T13:05:31.694Z,23.20
2018-06-12T13:07:59.299Z,23.22
2018-06-12T13:10:26.523Z,23.30
2018-06-12T13:12:53.761Z,23.33
2018-06-12T13:15:20.941Z,23.53
2018-06-12T13:17:48.077Z,23.85
2018-06-12T13:20:16.317Z,24.09
2018-06-12T13:22:43.484Z,24.35
2018-06-12T13:25:10.652Z,24.42
2018-06-12T13:27:38.965Z,24.73
2018-06-12T13:30:06.571Z,24.27
2018-06-12T13:32:33.979Z,24.11
2018-06-12T13:35:02.627Z,24.26
2018-06-12T13:37:31.082Z,23.91
2018-06-12T13:40:01.130Z,24.44
2018-06-12T13:42:28.572Z,24.38
2018-06-12T13:44:55.790Z,24.54
2018-06-12T13:47:22.916Z,24.78
2018-06-12T13:49:50.555Z,24.59
2018-06-12T13:52:17.688Z,24.54
2018-06-12T13:54:45.902Z,24.54
2018-06-12T13:57:14.872Z,24.57
2018-06-12T13:59:43.104Z,24.27
2018-06-12T14:02:10.596Z,24.27
2018-06-12T14:04:38.199Z,24.49
2018-06-12T14:07:05.668Z,24.83
2018-06-12T14:09:33.872Z,24.75
2018-06-12T14:12:02.269Z,24.53
2018-06-12T14:14:30.319Z,24.37
2018-06-12T14:16:57.548Z,24.43
2018-06-12T14:19:24.766Z,24.58
2018-06-12T14:21:51.968Z,25.15
2018-06-12T14:24:19.112Z,25.50
2018-06-12T14:26:46.433Z,25.21
2018-06-12T14:29:13.548Z,25.67
2018-06-12T14:31:40.839Z,25.69
2018-06-12T14:34:08.414Z,25.60
2018-06-12T14:36:35.867Z,25.38
2018-06-12T14:39:04.981Z,25.30
2018-06-12T14:41:33.330Z,26.13
2018-06-12T14:44:01.484Z,26.17
2018-06-12T14:46:29.756Z,25.61
2018-06-12T14:48:57.200Z,25.73
2018-06-12T14:51:24.420Z,25.86
2018-06-12T14:53:51.556Z,25.82
2018-06-12T14:56:18.748Z,26.93
2018-06-12T14:58:45.847Z,27.72
2018-06-12T15:01:12.983Z,29.59
2018-06-12T15:03:41.196Z,31.15
2018-06-12T15:06:08.803Z,33.38
2018-06-12T15:08:36.188Z,34.63
2018-06-12T15:11:04.278Z,34.21
2018-06-12T15:13:32.395Z,34.52
2018-06-12T15:16:00.168Z,35.58
2018-06-12T15:18:27.372Z,35.84
2018-06-12T15:20:54.507Z,36.54
2018-06-12T15:23:21.631Z,35.17
2018-06-12T15:25:48.860Z,35.44
2018-06-12T15:28:16.037Z,36.43
2018-06-12T15:30:43.173Z,37.11
2018-06-12T15:33:10.484Z,35.60
2018-06-12T15:35:37.972Z,36.28
2018-06-12T15:38:05.920Z,35.42
2018-06-12T15:40:33.779Z,32.56
2018-06-12T15:43:02.374Z,32.84
2018-06-12T15:45:30.032Z,33.54
2018-06-12T15:47:57.275Z,34.67
2018-06-12T15:50:24.408Z,34.85
2018-06-12T15:52:51.588Z,33.65
2018-06-12T15:55:19.757Z,32.09
2018-06-12T15:57:46.889Z,31.08
2018-06-12T16:00:14.039Z,30.30
2018-06-12T16:02:41.411Z,28.49
2018-06-12T16:05:08.863Z,27.96
2018-06-12T16:07:36.653Z,27.31
2018-06-12T16:10:04.345Z,26.59
2018-06-12T16:12:32.529Z,25.88
2018-06-12T16:15:00.759Z,25.60
2018-06-12T16:17:28.023Z,25.34
2018-06-12T16:19:55.205Z,25.27
2018-06-12T16:22:22.358Z,25.02
2018-06-12T16:24:49.538Z,24.83
2018-06-12T16:27:16.680Z,24.40
2018-06-12T16:29:44.039Z,24.19
2018-06-12T16:32:11.202Z,24.19
2018-06-12T16:34:38.782Z,23.96
2018-06-12T16:37:06.338Z,23.53
2018-06-12T16:39:34.228Z,23.44
2018-06-12T16:42:02.404Z,22.99
2018-06-12T16:44:29.945Z,22.69
2018-06-12T16:46:57.160Z,22.57
2018-06-12T16:49:24.627Z,22.82
2018-06-12T16:51:51.757Z,22.92
2018-06-12T16:54:18.972Z,22.94
2018-06-12T16:56:46.136Z,22.95
2018-06-12T16:59:13.252Z,22.91
2018-06-12T17:01:40.493Z,22.97
2018-06-12T17:04:07.920Z,22.57
2018-06-12T17:06:35.663Z,22.27
2018-06-12T17:09:06.000Z,22.33
2018-06-12T17:11:34.070Z,22.13
2018-06-12T17:14:02.594Z,21.95
2018-06-12T17:16:30.589Z,21.82
2018-06-12T17:18:57.935Z,21.75
2018-06-12T17:21:25.047Z,21.74
2018-06-12T17:23:52.205Z,21.57
2018-06-12T17:26:19.315Z,21.53
2018-06-12T17:28:46.480Z,21.41
2018-06-12T17:31:14.735Z,21.28
2018-06-12T17:33:42.031Z,21.17
2018-06-12T17:36:09.891Z,21.04
2018-06-12T17:38:38.024Z,20.97
2018-06-12T17:41:06.291Z,20.87
2018-06-12T17:43:34.124Z,20.80
2018-06-12T17:46:02.706Z,20.63
2018-06-12T17:48:31.782Z,20.64
2018-06-12T17:50:59.894Z,20.36
2018-06-12T17:53:27.096Z,20.29
2018-06-12T17:55:54.187Z,20.18
2018-06-12T17:58:21.295Z,20.15
2018-06-12T18:00:48.560Z,20.22
2018-06-12T18:03:15.681Z,19.98
2018-06-12T18:05:43.979Z,19.91
2018-06-12T18:08:11.249Z,19.84
2018-06-12T18:10:39.077Z,19.74
2018-06-12T18:13:06.568Z,19.74
2018-06-12T18:15:35.244Z,19.63
2018-06-12T18:18:03.171Z,19.68
2018-06-12T18:20:32.914Z,19.57
2018-06-12T18:23:01.484Z,19.50
2018-06-12T18:25:28.756Z,19.33
2018-06-12T18:27:55.979Z,19.38
2018-06-12T18:30:23.175Z,19.37
2018-06-12T18:32:50.283Z,19.20
2018-06-12T18:35:17.941Z,19.16
2018-06-12T18:37:45.215Z,19.20
2018-06-12T18:40:12.441Z,19.09
2018-06-12T18:42:39.984Z,19.01
2018-06-12T18:45:07.720Z,18.95
2018-06-12T18:47:36.242Z,18.88
2018-06-12T18:50:06.389Z,18.88
2018-06-12T18:52:36.249Z,18.79
2018-06-12T18:55:05.151Z,18.69
2018-06-12T18:57:35.152Z,18.68
2018-06-12T19:00:05.094Z,18.58
2018-06-12T19:02:35.277Z,18.49
2018-06-12T19:05:04.507Z,18.41
2018-06-12T19:07:35.012Z,18.30
2018-06-12T19:10:05.261Z,18.23
2018-06-12T19:12:35.252Z,18.22
2018-06-12T19:15:04.651Z,18.02
2018-06-12T19:17:33.596Z,18.00
2018-06-12T19:20:04.424Z,17.90
2018-06-12T19:22:35.804Z,17.82
2018-06-12T19:25:04.396Z,17.77
2018-06-12T19:27:33.352Z,17.77
2018-06-12T19:30:03.679Z,17.65
2018-06-12T19:32:33.222Z,17.61
2018-06-12T19:35:01.440Z,17.61
2018-06-12T19:37:28.660Z,17.39
2018-06-12T19:39:55.780Z,17.35
2018-06-12T19:42:22.992Z,17.27
2018-06-12T19:44:50.167Z,17.18
2018-06-12T19:47:17.267Z,17.09
2018-06-12T19:49:44.396Z,17.10
2018-06-12T19:52:11.699Z,17.09
2018-06-12T19:54:39.431Z,16.93
2018-06-12T19:57:07.022Z,16.85
2018-06-12T19:59:35.096Z,16.81
2018-06-12T20:02:03.651Z,16.93
2018-06-12T20:04:31.928Z,16.90
2018-06-12T20:07:00.205Z,16.91
2018-06-12T20:09:27.368Z,16.86
2018-06-12T20:11:54.533Z,16.84
2018-06-12T20:14:21.691Z,16.88
2018-06-12T20:16:48.777Z,16.93
2018-06-12T20:19:15.912Z,16.98
2018-06-12T20:21:43.066Z,17.04
2018-06-12T20:24:10.529Z,17.11
2018-06-12T20:26:38.066Z,17.03
2018-06-12T20:29:05.681Z,17.10
2018-06-12T20:31:33.613Z,17.12
2018-06-12T20:34:01.621Z,17.16
2018-06-12T20:36:30.150Z,17.21
2018-06-12T20:38:57.272Z,17.29
2018-06-12T20:41:24.522Z,17.20
2018-06-12T20:43:51.716Z,17.26
2018-06-12T20:46:18.856Z,17.26
2018-06-12T20:48:46.023Z,17.24
2018-06-12T20:51:13.172Z,17.32
2018-06-12T20:53:40.371Z,17.25
2018-06-12T20:56:08.178Z,17.29
2018-06-12T20:58:35.984Z,17.31
2018-06-12T21:01:03.932Z,17.40
2018-06-12T21:03:32.499Z,17.37
2018-06-12T21:06:01.412Z,17.35
2018-06-12T21:08:29.278Z,17.32
2018-06-12T21:10:56.756Z,17.29
2018-06-12T21:13:24.130Z,17.29
2018-06-12T21:15:51.237Z,17.23
2018-06-12T21:18:18.394Z,17.21
2018-06-12T21:20:46.639Z,17.28
2018-06-12T21:23:13.777Z,17.24
2018-06-12T21:25:40.923Z,17.22
2018-06-12T21:28:08.363Z,17.24
2018-06-12T21:30:36.187Z,17.20
2018-06-12T21:33:04.118Z,17.13
2018-06-12T21:35:32.765Z,17.04
2018-06-12T21:38:01.520Z,17.07
2018-06-12T21:40:28.777Z,17.17
2018-06-12T21:42:55.924Z,17.14
2018-06-12T21:45:23.016Z,17.04
2018-06-12T21:47:50.126Z,17.00
2018-06-12T21:50:17.316Z,17.05
2018-06-12T21:52:44.480Z,17.03
2018-06-12T21:55:11.604Z,16.98
2018-06-12T21:57:39.244Z,16.95
2018-06-12T22:00:07.242Z,16.96
2018-06-12T22:02:34.893Z,17.01
2018-06-12T22:05:03.144Z,16.97
2018-06-12T22:07:30.783Z,16.97
2018-06-12T22:09:58.170Z,16.97
2018-06-12T22:12:25.391Z,16.93
2018-06-12T22:14:52.589Z,17.00
2018-06-12T22:17:19.738Z,17.05
2018-06-12T22:19:46.873Z,16.86
2018-06-12T22:22:13.992Z,16.86
2018-06-12T22:24:41.107Z,16.84
2018-06-12T22:27:08.723Z,16.96
2018-06-12T22:29:36.173Z,16.95
2018-06-12T22:32:04.238Z,16.87
2018-06-12T22:34:32.759Z,16.92
2018-06-12T22:37:01.652Z,16.85
2018-06-12T22:39:28.917Z,16.88
2018-06-12T22:41:56.101Z,16.87
2018-06-12T22:44:23.279Z,16.81
2018-06-12T22:46:50.464Z,16.95
2018-06-12T22:49:17.880Z,16.90
2018-06-12T22:51:45.012Z,16.91
2018-06-12T22:54:12.142Z,16.83
2018-06-12T22:56:39.687Z,16.94
2018-06-12T22:59:07.699Z,16.98
2018-06-12T23:01:35.353Z,16.87
2018-06-12T23:04:03.688Z,16.91
2018-06-12T23:06:32.046Z,16.82
2018-06-12T23:08:59.695Z,16.89
2018-06-12T23:11:27.053Z,16.81
2018-06-12T23:13:56.292Z,16.79
2018-06-12T23:16:23.489Z,16.81
2018-06-12T23:18:50.689Z,16.83
2018-06-12T23:21:58.474Z,16.74
2018-06-12T23:24:25.803Z,16.79
2018-06-12T23:26:52.961Z,16.66
2018-06-12T23:29:20.156Z,16.66
2018-06-12T23:31:47.396Z,16.68
2018-06-12T23:34:14.577Z,16.70
2018-06-12T23:36:41.765Z,16.79
2018-06-12T23:39:09.517Z,16.69
2018-06-12T23:41:37.316Z,16.66
2018-06-12T23:44:04.883Z,16.66
2018-06-12T23:46:33.540Z,16.64
2018-06-12T23:49:01.747Z,16.65
2018-06-12T23:51:29.443Z,16.68
2018-06-12T23:53:56.661Z,16.71
2018-06-12T23:56:24.715Z,16.61
2018-06-12T23:58:51.932Z,16.59
